Portada
METAR-TAF:

METAR-TAF

Aeroports :

Marshfield, Massachusetts, Estats Units d'Amèrica

latitud: 42-05-54N, longitud: 070-40-20W, altitud: 3 m

Observació

L'informe es va fer fa 13 minuts, a les 09:15 UTC
Vent calma
Temperatura 18°C
Humitat 100%
Pressió 1012 hPa
Visibilitat: 6.4 km
Cel ennuvolat a una alçada de 500 ft
boirina

METAR: KGHG 170915Z AUTO 00000KT 4SM BR BKN005 18/18 A2987 RMK AO2

Hora: 05:28 (09:28 UTC)


TAF: manca

Observacions i pronòstics meteorològics de més de 4000 aeroports (METAR i TAF).

Les estacions disponibles són els punts grocs i vermells al mapa.

Posi el ratolí al punt desitjat per veure el nom de l'estació.

Feu clic per veure les observacions i els pronòstics meteorològics.

Per canviar el mapa: feu clic els botons verds amb una creu de color negre per apropar; al botó verd amb un guió per allunyar la imatge; o en les fletxes verdes per a mapes adjacents.


METAR-TAF: